createdAt,value
2023-01-20T00:01:43.337Z,69.70
2023-01-20T00:04:10.100Z,69.70
2023-01-20T00:06:36.897Z,69.70
2023-01-20T00:09:05.420Z,69.80
2023-01-20T00:11:33.432Z,70.10
2023-01-20T00:14:02.361Z,70.00
2023-01-20T00:16:31.968Z,70.00
2023-01-20T00:18:59.235Z,70.10
2023-01-20T00:21:26.009Z,70.10
2023-01-20T00:23:52.776Z,70.00
2023-01-20T00:26:23.169Z,70.10
2023-01-20T00:28:52.996Z,70.20
2023-01-20T00:31:23.221Z,70.30
2023-01-20T00:33:52.293Z,70.40
2023-01-20T00:36:21.218Z,70.30
2023-01-20T00:38:48.926Z,70.20
2023-01-20T00:41:16.673Z,70.10
2023-01-20T00:43:44.403Z,70.10
2023-01-20T00:46:12.297Z,70.10
2023-01-20T00:48:39.562Z,70.00
2023-01-20T00:51:08.201Z,70.00
2023-01-20T00:53:35.748Z,70.10
2023-01-20T00:56:02.969Z,70.10
2023-01-20T00:58:29.747Z,70.10
2023-01-20T01:00:58.631Z,70.20
2023-01-20T01:03:28.255Z,70.30
2023-01-20T01:06:05.728Z,70.20
2023-01-20T01:08:34.943Z,70.30
2023-01-20T01:11:01.938Z,70.00
2023-01-20T01:13:29.248Z,70.00
2023-01-20T01:15:55.976Z,70.10
2023-01-20T01:18:22.988Z,70.10
2023-01-20T01:20:49.869Z,70.10
2023-01-20T01:23:16.649Z,70.30
2023-01-20T01:25:43.410Z,70.50
2023-01-20T01:28:10.199Z,70.70
2023-01-20T01:30:37.150Z,70.70
2023-01-20T01:33:04.152Z,70.60
2023-01-20T01:35:30.941Z,70.50
2023-01-20T01:37:57.702Z,70.50
2023-01-20T01:40:24.464Z,70.50
2023-01-20T01:42:51.238Z,70.40
2023-01-20T01:45:23.790Z,70.40
2023-01-20T01:48:09.777Z,70.90
2023-01-20T01:50:56.236Z,70.80
2023-01-20T01:53:23.551Z,70.80
2023-01-20T01:55:56.539Z,70.60
2023-01-20T01:58:32.280Z,70.80
2023-01-20T02:00:59.437Z,70.90
2023-01-20T02:03:40.432Z,70.90
2023-01-20T02:06:08.042Z,71.00
2023-01-20T02:08:35.719Z,70.90
2023-01-20T02:11:02.454Z,71.00
2023-01-20T02:13:29.447Z,71.10
2023-01-20T02:16:25.345Z,71.30
2023-01-20T02:19:30.799Z,71.40
2023-01-20T02:22:14.439Z,71.30
2023-01-20T02:25:17.384Z,71.10
2023-01-20T02:28:21.057Z,71.20
2023-01-20T02:31:29.342Z,71.20
2023-01-20T02:34:35.053Z,71.30
2023-01-20T02:37:24.468Z,71.40
2023-01-20T02:40:10.069Z,71.40
2023-01-20T02:42:57.121Z,71.40
2023-01-20T02:45:42.960Z,71.50
2023-01-20T02:48:36.144Z,71.50
2023-01-20T02:51:12.601Z,71.70
2023-01-20T02:53:48.838Z,71.80
2023-01-20T02:56:17.727Z,71.70
2023-01-20T02:59:08.273Z,71.60
2023-01-20T03:01:47.557Z,71.80
2023-01-20T03:04:24.246Z,71.60
2023-01-20T03:06:56.823Z,71.50
2023-01-20T03:09:31.264Z,71.40
2023-01-20T03:12:07.948Z,71.50
2023-01-20T03:14:34.917Z,71.40
2023-01-20T03:17:02.761Z,71.50
2023-01-20T03:19:29.959Z,71.40
2023-01-20T03:21:57.651Z,71.30
2023-01-20T03:24:28.895Z,71.20
2023-01-20T03:26:56.191Z,71.20
2023-01-20T03:29:23.011Z,71.20
2023-01-20T03:31:56.805Z,71.00
2023-01-20T03:34:28.059Z,71.20
2023-01-20T03:36:56.479Z,71.30
2023-01-20T03:39:25.047Z,71.30
2023-01-20T03:42:15.747Z,71.30
2023-01-20T03:45:05.045Z,71.20
2023-01-20T03:48:07.461Z,71.20
2023-01-20T03:51:28.436Z,71.10
2023-01-20T03:54:11.112Z,71.10
2023-01-20T03:57:04.096Z,71.10
2023-01-20T03:59:36.908Z,71.10
2023-01-20T04:02:07.847Z,71.00
2023-01-20T04:04:39.610Z,71.30
2023-01-20T04:07:13.708Z,71.20
2023-01-20T04:09:45.948Z,71.20
2023-01-20T04:12:13.423Z,71.20
2023-01-20T04:14:40.343Z,71.20
2023-01-20T04:17:07.916Z,71.00
2023-01-20T04:19:34.854Z,71.00
2023-01-20T04:22:28.196Z,71.20
2023-01-20T04:25:06.711Z,71.40
2023-01-20T04:27:33.512Z,71.20
2023-01-20T04:30:00.241Z,71.10
2023-01-20T04:32:27.028Z,71.30
2023-01-20T04:34:53.977Z,71.30
2023-01-20T04:37:20.685Z,71.20
2023-01-20T04:39:47.396Z,71.20
2023-01-20T04:42:14.148Z,71.10
2023-01-20T04:44:40.918Z,71.20
2023-01-20T04:47:07.775Z,71.40
2023-01-20T04:49:35.506Z,71.50
2023-01-20T04:52:02.356Z,71.50
2023-01-20T04:54:29.089Z,71.60
2023-01-20T04:56:55.832Z,71.70
2023-01-20T04:59:22.705Z,71.80
2023-01-20T05:01:49.599Z,71.80
2023-01-20T05:04:16.393Z,71.90
2023-01-20T05:06:44.868Z,71.80
2023-01-20T05:09:16.682Z,71.80
2023-01-20T05:11:44.404Z,72.70
2023-01-20T05:14:12.514Z,71.90
2023-01-20T05:16:39.273Z,71.90
2023-01-20T05:19:06.057Z,71.90
2023-01-20T05:21:33.783Z,71.90
2023-01-20T05:24:00.673Z,71.90
2023-01-20T05:26:27.511Z,71.90
2023-01-20T05:28:54.463Z,71.90
2023-01-20T05:31:21.456Z,72.10
2023-01-20T05:33:48.233Z,72.20
2023-01-20T05:36:14.952Z,72.30
2023-01-20T05:38:41.822Z,72.30
2023-01-20T05:41:09.898Z,72.40
2023-01-20T05:43:37.243Z,72.40
2023-01-20T05:46:06.523Z,72.40
2023-01-20T05:48:33.518Z,72.50
2023-01-20T05:51:00.336Z,72.50
2023-01-20T05:53:27.123Z,72.60
2023-01-20T05:56:02.230Z,72.50
2023-01-20T05:58:30.127Z,72.70
2023-01-20T06:01:09.487Z,72.50
2023-01-20T06:03:37.143Z,72.80
2023-01-20T06:06:07.950Z,72.70
2023-01-20T06:08:35.856Z,72.90
2023-01-20T06:11:02.793Z,72.80
2023-01-20T06:13:29.680Z,72.80
2023-01-20T06:15:56.804Z,72.80
2023-01-20T06:18:24.877Z,72.70
2023-01-20T06:20:51.776Z,72.70
2023-01-20T06:23:18.673Z,72.70
2023-01-20T06:25:45.503Z,72.70
2023-01-20T06:28:12.352Z,72.50
2023-01-20T06:30:39.181Z,72.50
2023-01-20T06:33:10.554Z,72.40
2023-01-20T06:35:37.892Z,72.50
2023-01-20T06:38:04.746Z,72.50
2023-01-20T06:40:31.829Z,72.40
2023-01-20T06:42:59.366Z,72.40
2023-01-20T06:45:26.172Z,72.40
2023-01-20T06:47:52.978Z,72.40
2023-01-20T06:50:19.847Z,72.50
2023-01-20T06:52:46.589Z,72.50
2023-01-20T06:55:13.555Z,72.50
2023-01-20T06:57:40.484Z,72.60
2023-01-20T07:00:09.680Z,72.50
2023-01-20T07:02:36.491Z,72.50
2023-01-20T07:05:04.658Z,72.40
2023-01-20T07:07:31.380Z,72.30
2023-01-20T07:09:58.140Z,72.20
2023-01-20T07:12:24.881Z,72.10
2023-01-20T07:14:51.628Z,72.20
2023-01-20T07:17:18.399Z,72.20
2023-01-20T07:19:45.382Z,72.30
2023-01-20T07:22:12.117Z,72.30
2023-01-20T07:24:38.971Z,72.20
2023-01-20T07:27:05.761Z,72.20
2023-01-20T07:29:32.518Z,72.20
2023-01-20T07:31:59.383Z,72.20
2023-01-20T07:34:26.207Z,72.20
2023-01-20T07:36:55.814Z,72.20
2023-01-20T07:39:22.565Z,72.20
2023-01-20T07:41:49.707Z,72.20
2023-01-20T07:44:16.782Z,72.10
2023-01-20T07:46:43.599Z,72.20
2023-01-20T07:49:12.395Z,72.10
2023-01-20T07:51:39.854Z,72.10
2023-01-20T07:54:06.757Z,72.10
2023-01-20T07:56:33.638Z,72.00
2023-01-20T07:59:00.857Z,72.10
2023-01-20T08:01:30.884Z,71.90
2023-01-20T08:04:02.444Z,71.90
2023-01-20T08:06:30.341Z,71.80
2023-01-20T08:09:01.961Z,71.80
2023-01-20T08:11:29.465Z,71.80
2023-01-20T08:13:56.437Z,71.90
2023-01-20T08:16:23.584Z,71.90
2023-01-20T08:18:53.855Z,71.90
2023-01-20T08:21:28.892Z,71.90
2023-01-20T08:23:57.651Z,72.10
2023-01-20T08:26:25.450Z,72.00
2023-01-20T08:28:52.272Z,71.90
2023-01-20T08:31:22.342Z,72.00
2023-01-20T08:33:54.502Z,71.90
2023-01-20T08:36:29.765Z,71.90
2023-01-20T08:38:59.869Z,71.80
2023-01-20T08:41:34.574Z,71.80
2023-01-20T08:44:04.575Z,71.80
2023-01-20T08:46:32.780Z,71.80
2023-01-20T08:48:59.606Z,71.70
2023-01-20T08:51:31.020Z,71.60
2023-01-20T08:53:58.319Z,71.60
2023-01-20T08:56:25.147Z,71.50
2023-01-20T08:58:52.245Z,71.40
2023-01-20T09:01:26.512Z,71.00
2023-01-20T09:04:05.512Z,71.00
2023-01-20T09:06:46.359Z,71.10
2023-01-20T09:09:16.789Z,71.00
2023-01-20T09:11:50.949Z,70.80
2023-01-20T09:14:24.692Z,71.00
2023-01-20T09:16:51.729Z,71.20
2023-01-20T09:19:18.746Z,71.40
2023-01-20T09:21:45.508Z,71.50
2023-01-20T09:24:12.484Z,71.50
2023-01-20T09:26:41.548Z,71.40
2023-01-20T09:29:12.843Z,71.40
2023-01-20T09:31:44.921Z,71.30
2023-01-20T09:34:21.397Z,71.30
2023-01-20T09:37:19.974Z,71.20
2023-01-20T09:40:06.196Z,71.30
2023-01-20T09:43:25.368Z,71.00
2023-01-20T09:46:21.891Z,71.00
2023-01-20T09:49:26.363Z,71.10
2023-01-20T09:52:45.953Z,71.00
2023-01-20T09:55:28.760Z,71.00
2023-01-20T09:58:25.663Z,71.00
2023-01-20T10:01:13.874Z,71.00
2023-01-20T10:03:58.689Z,71.10
2023-01-20T10:06:51.591Z,71.00
2023-01-20T10:09:52.787Z,70.90
2023-01-20T10:12:33.838Z,70.70
2023-01-20T10:15:12.604Z,70.70
2023-01-20T10:18:02.266Z,70.60
2023-01-20T10:21:00.857Z,70.50
2023-01-20T10:23:46.456Z,70.70
2023-01-20T10:26:40.935Z,70.60
2023-01-20T10:29:17.953Z,70.50
2023-01-20T10:32:00.209Z,70.40
2023-01-20T10:34:56.314Z,70.50
2023-01-20T10:37:24.553Z,71.10
2023-01-20T10:40:14.030Z,70.40
2023-01-20T10:42:41.400Z,70.20
2023-01-20T10:45:23.179Z,70.20
2023-01-20T10:48:25.916Z,70.10
2023-01-20T10:51:37.820Z,70.20
2023-01-20T10:54:41.411Z,70.10
2023-01-20T10:57:14.022Z,70.00
2023-01-20T10:59:51.548Z,70.10
2023-01-20T11:02:34.982Z,70.20
2023-01-20T11:05:18.890Z,70.20
2023-01-20T11:07:47.515Z,70.20
2023-01-20T11:10:25.025Z,70.40
2023-01-20T11:12:57.470Z,70.30
2023-01-20T11:15:36.713Z,70.20
2023-01-20T11:18:15.765Z,70.00
2023-01-20T11:20:58.102Z,70.00
2023-01-20T11:23:52.229Z,69.80
2023-01-20T11:26:31.645Z,69.50
2023-01-20T11:29:28.626Z,69.50
2023-01-20T11:31:56.752Z,69.30
2023-01-20T11:34:26.535Z,69.10
2023-01-20T11:37:19.539Z,69.20
2023-01-20T11:39:49.314Z,69.10
2023-01-20T11:42:27.485Z,69.00
2023-01-20T11:45:19.831Z,69.00
2023-01-20T11:48:04.887Z,69.20
2023-01-20T11:50:46.380Z,69.20
2023-01-20T11:53:34.773Z,69.20
2023-01-20T11:56:15.158Z,69.20
2023-01-20T11:59:01.841Z,69.00
2023-01-20T12:01:49.956Z,68.90
2023-01-20T12:04:54.456Z,69.00
2023-01-20T12:07:29.314Z,69.00
2023-01-20T12:10:17.092Z,69.50
2023-01-20T12:13:24.997Z,68.90
2023-01-20T12:15:59.076Z,68.90
2023-01-20T12:18:45.440Z,69.00
2023-01-20T12:21:26.358Z,69.00
2023-01-20T12:24:09.659Z,68.40
2023-01-20T12:26:36.694Z,69.20
2023-01-20T12:29:28.756Z,69.30
2023-01-20T12:31:55.633Z,69.40
2023-01-20T12:34:29.801Z,70.10
2023-01-20T12:37:24.761Z,69.20
2023-01-20T12:40:13.439Z,69.20
2023-01-20T12:43:12.868Z,69.30
2023-01-20T12:46:03.300Z,69.20
2023-01-20T12:48:54.327Z,69.10
2023-01-20T12:51:54.314Z,68.70
2023-01-20T12:55:17.453Z,68.80
2023-01-20T12:58:17.253Z,68.80
2023-01-20T13:01:29.083Z,68.60
2023-01-20T13:04:48.795Z,68.70
2023-01-20T13:07:33.021Z,68.70
2023-01-20T13:10:47.059Z,68.90
2023-01-20T13:14:02.019Z,68.50
2023-01-20T13:16:42.601Z,68.60
2023-01-20T13:19:37.162Z,69.50
2023-01-20T13:22:19.641Z,68.90
2023-01-20T13:24:50.750Z,68.70
2023-01-20T13:27:29.075Z,68.70
2023-01-20T13:29:58.949Z,68.90
2023-01-20T13:32:48.152Z,68.90
2023-01-20T13:35:17.933Z,69.00
2023-01-20T13:37:57.588Z,69.00
2023-01-20T13:40:36.544Z,69.00
2023-01-20T13:43:26.351Z,68.80
2023-01-20T13:46:06.597Z,68.70
2023-01-20T13:48:43.849Z,68.80
2023-01-20T13:51:42.405Z,68.80
2023-01-20T13:54:25.145Z,68.70
2023-01-20T13:56:52.387Z,68.50
2023-01-20T13:59:19.178Z,68.30
2023-01-20T14:01:45.974Z,68.20
2023-01-20T14:04:19.610Z,68.10
2023-01-20T14:06:49.637Z,67.80
2023-01-20T14:09:34.678Z,67.80
2023-01-20T14:12:01.449Z,67.80
2023-01-20T14:14:28.176Z,68.00
2023-01-20T14:16:56.467Z,67.80
2023-01-20T14:19:33.917Z,67.90
2023-01-20T14:22:16.443Z,68.00
2023-01-20T14:24:49.265Z,67.80
2023-01-20T14:27:35.492Z,67.80
2023-01-20T14:30:26.045Z,67.80
2023-01-20T14:32:53.808Z,67.80
2023-01-20T14:35:34.353Z,68.00
2023-01-20T14:38:02.139Z,67.90
2023-01-20T14:40:32.999Z,68.20
2023-01-20T14:43:16.557Z,68.20
2023-01-20T14:45:47.204Z,68.10
2023-01-20T14:48:28.238Z,68.10
2023-01-20T14:51:02.784Z,68.10
2023-01-20T14:53:29.628Z,68.20
2023-01-20T14:56:03.091Z,68.20
2023-01-20T14:58:31.054Z,68.20
2023-01-20T15:01:06.700Z,68.20
2023-01-20T15:03:33.630Z,68.10
2023-01-20T15:06:17.564Z,68.00
2023-01-20T15:09:04.325Z,68.20
2023-01-20T15:11:32.979Z,68.20
2023-01-20T15:14:02.414Z,68.30
2023-01-20T15:16:47.273Z,68.20
2023-01-20T15:19:16.929Z,68.10
2023-01-20T15:21:58.809Z,68.20
2023-01-20T15:24:32.849Z,68.30
2023-01-20T15:27:01.260Z,68.20
2023-01-20T15:29:34.580Z,68.10
2023-01-20T15:32:12.870Z,68.10
2023-01-20T15:34:39.661Z,68.00
2023-01-20T15:37:19.952Z,68.10
2023-01-20T15:39:47.557Z,68.10
2023-01-20T15:42:15.327Z,68.20
2023-01-20T15:44:42.117Z,68.30
2023-01-20T15:47:29.134Z,68.40
2023-01-20T15:49:55.956Z,68.40
2023-01-20T15:52:22.735Z,68.40
2023-01-20T15:54:49.453Z,68.50
2023-01-20T15:57:18.025Z,67.80
2023-01-20T15:59:46.077Z,68.50
2023-01-20T16:02:23.007Z,68.50
2023-01-20T16:04:50.481Z,68.50
2023-01-20T16:07:19.677Z,68.40
2023-01-20T16:09:46.922Z,68.50
2023-01-20T16:12:16.223Z,68.70
2023-01-20T16:14:43.338Z,68.80
2023-01-20T16:17:21.517Z,68.80
2023-01-20T16:19:50.044Z,69.00
2023-01-20T16:22:17.263Z,69.00
2023-01-20T16:24:44.221Z,69.20
2023-01-20T16:27:21.607Z,69.20
2023-01-20T16:29:49.198Z,69.20
2023-01-20T16:32:18.671Z,69.10
2023-01-20T16:34:46.686Z,69.00
2023-01-20T16:37:14.696Z,69.10
2023-01-20T16:39:41.567Z,69.20
2023-01-20T16:42:12.422Z,69.00
2023-01-20T16:44:39.197Z,69.10
2023-01-20T16:47:08.250Z,69.00
2023-01-20T16:49:35.088Z,69.00
2023-01-20T16:52:01.844Z,69.10
2023-01-20T16:54:28.551Z,69.20
2023-01-20T16:56:55.322Z,69.20
2023-01-20T16:59:22.581Z,69.20
2023-01-20T17:01:49.455Z,69.00
2023-01-20T17:04:16.679Z,69.00
2023-01-20T17:06:43.502Z,69.00
2023-01-20T17:09:11.283Z,69.00
2023-01-20T17:11:40.401Z,69.00
2023-01-20T17:14:10.479Z,69.00
2023-01-20T17:16:38.730Z,69.10
2023-01-20T17:19:06.173Z,69.10
2023-01-20T17:21:38.403Z,69.00
2023-01-20T17:24:06.066Z,69.00
2023-01-20T17:26:34.461Z,69.10
2023-01-20T17:29:05.249Z,69.20
2023-01-20T17:31:35.566Z,69.20
2023-01-20T17:34:06.817Z,69.30
2023-01-20T17:36:38.645Z,69.30
2023-01-20T17:39:07.109Z,69.40
2023-01-20T17:41:34.661Z,69.50
2023-01-20T17:44:01.385Z,69.30
2023-01-20T17:46:30.195Z,69.20
2023-01-20T17:49:01.709Z,69.20
2023-01-20T17:51:30.203Z,69.30
2023-01-20T17:54:03.528Z,69.40
2023-01-20T17:56:30.771Z,69.40
2023-01-20T17:58:57.538Z,69.30
2023-01-20T18:01:28.774Z,69.20
2023-01-20T18:03:59.307Z,69.20
2023-01-20T18:06:28.119Z,69.20
2023-01-20T18:08:58.715Z,69.30
2023-01-20T18:11:28.903Z,69.30
2023-01-20T18:13:58.263Z,69.30
2023-01-20T18:16:30.110Z,69.20
2023-01-20T18:18:58.967Z,69.30
2023-01-20T18:21:29.892Z,69.50
2023-01-20T18:23:58.120Z,69.70
2023-01-20T18:26:29.382Z,69.70
2023-01-20T18:28:59.867Z,69.90
2023-01-20T18:31:28.961Z,70.00
2023-01-20T18:33:59.217Z,70.10
2023-01-20T18:36:30.442Z,70.10
2023-01-20T18:39:08.105Z,70.00
2023-01-20T18:41:37.632Z,70.10
2023-01-20T18:44:05.518Z,70.00
2023-01-20T18:46:32.921Z,70.10
2023-01-20T18:49:00.116Z,70.00
2023-01-20T18:51:30.020Z,70.20
2023-01-20T18:54:07.344Z,70.20
2023-01-20T18:56:35.293Z,70.20
2023-01-20T18:59:04.158Z,70.30
2023-01-20T19:01:35.715Z,70.30
2023-01-20T19:04:04.466Z,70.30
2023-01-20T19:06:36.030Z,70.20
2023-01-20T19:09:04.886Z,70.30
2023-01-20T19:11:36.284Z,70.10
2023-01-20T19:14:03.683Z,70.20
2023-01-20T19:16:40.233Z,70.30
2023-01-20T19:19:07.787Z,70.30
2023-01-20T19:21:36.165Z,70.10
2023-01-20T19:24:06.113Z,70.10
2023-01-20T19:26:36.654Z,70.10
2023-01-20T19:29:11.793Z,70.00
2023-01-20T19:31:41.405Z,70.00
2023-01-20T19:34:09.767Z,70.00
2023-01-20T19:36:37.378Z,70.10
2023-01-20T19:39:05.467Z,70.30
2023-01-20T19:41:34.262Z,70.40
2023-01-20T19:44:03.253Z,70.40
2023-01-20T19:46:33.864Z,71.20
2023-01-20T19:49:02.207Z,70.60
2023-01-20T19:51:31.141Z,70.70
2023-01-20T19:54:00.879Z,70.70
2023-01-20T19:56:31.306Z,70.70
2023-01-20T19:59:00.706Z,71.20
2023-01-20T20:01:31.987Z,70.30
2023-01-20T20:04:03.495Z,70.00
2023-01-20T20:06:40.536Z,69.80
2023-01-20T20:09:12.358Z,69.90
2023-01-20T20:11:39.932Z,69.90
2023-01-20T20:14:10.950Z,69.90
2023-01-20T20:16:38.601Z,70.10
2023-01-20T20:19:07.392Z,70.20
2023-01-20T20:21:35.008Z,70.30
2023-01-20T20:24:05.175Z,70.50
2023-01-20T20:26:36.605Z,70.80
2023-01-20T20:29:07.040Z,71.00
2023-01-20T20:31:36.811Z,70.80
2023-01-20T20:34:06.824Z,71.30
2023-01-20T20:36:33.906Z,70.60
2023-01-20T20:39:03.328Z,70.60
2023-01-20T20:41:31.683Z,70.70
2023-01-20T20:44:01.163Z,70.60
2023-01-20T20:46:29.948Z,70.70
2023-01-20T20:49:02.147Z,70.80
2023-01-20T20:51:32.175Z,70.70
2023-01-20T20:54:01.858Z,70.70
2023-01-20T20:56:33.673Z,70.70
2023-01-20T20:59:03.208Z,70.80
2023-01-20T21:01:33.541Z,70.90
2023-01-20T21:04:01.475Z,70.90
2023-01-20T21:06:29.462Z,70.80
2023-01-20T21:08:56.452Z,70.70
2023-01-20T21:11:24.943Z,70.90
2023-01-20T21:13:52.875Z,71.00
2023-01-20T21:16:23.000Z,71.50
2023-01-20T21:18:52.243Z,70.70
2023-01-20T21:21:20.141Z,70.90
2023-01-20T21:23:55.776Z,71.10
2023-01-20T21:26:26.222Z,71.00
2023-01-20T21:28:54.069Z,70.90
2023-01-20T21:31:24.579Z,71.30
2023-01-20T21:33:54.509Z,70.70
2023-01-20T21:36:22.269Z,70.60
2023-01-20T21:38:50.234Z,70.90
2023-01-20T21:41:17.975Z,70.70
2023-01-20T21:44:06.014Z,71.00
2023-01-20T21:46:38.959Z,71.00
2023-01-20T21:49:28.142Z,71.10
2023-01-20T21:52:14.574Z,71.30
2023-01-20T21:54:41.950Z,71.10
2023-01-20T21:57:09.215Z,71.20
2023-01-20T21:59:36.415Z,71.10
2023-01-20T22:02:03.311Z,71.20
2023-01-20T22:04:30.199Z,71.10
2023-01-20T22:06:56.954Z,71.20
2023-01-20T22:09:23.880Z,71.20
2023-01-20T22:11:50.722Z,71.30
2023-01-20T22:14:17.751Z,71.30
2023-01-20T22:16:44.748Z,71.30
2023-01-20T22:19:14.930Z,71.20
2023-01-20T22:21:42.647Z,71.30
2023-01-20T22:24:11.437Z,71.20
2023-01-20T22:26:38.417Z,71.00
2023-01-20T22:29:05.335Z,71.20
2023-01-20T22:31:34.160Z,71.30
2023-01-20T22:34:06.148Z,71.30
2023-01-20T22:36:34.121Z,71.50
2023-01-20T22:39:01.042Z,71.50
2023-01-20T22:41:27.984Z,71.70
2023-01-20T22:43:55.767Z,71.80
2023-01-20T22:46:25.272Z,71.60
2023-01-20T22:48:52.245Z,71.60
2023-01-20T22:51:22.882Z,71.70
2023-01-20T22:53:54.646Z,71.80
2023-01-20T22:56:30.503Z,72.00
2023-01-20T22:58:59.553Z,72.10
2023-01-20T23:01:33.170Z,71.90
2023-01-20T23:04:05.628Z,71.80
2023-01-20T23:06:35.412Z,72.10
2023-01-20T23:09:07.248Z,72.10
2023-01-20T23:11:36.541Z,72.30
2023-01-20T23:14:03.716Z,72.20
2023-01-20T23:16:30.459Z,72.20
2023-01-20T23:18:57.307Z,72.10
2023-01-20T23:21:24.485Z,72.30
2023-01-20T23:23:54.470Z,72.20
2023-01-20T23:26:25.784Z,72.30
2023-01-20T23:28:53.913Z,72.10
2023-01-20T23:31:23.016Z,72.30
2023-01-20T23:33:50.466Z,72.20
2023-01-20T23:36:21.536Z,72.20
2023-01-20T23:38:48.288Z,72.20
2023-01-20T23:41:15.842Z,72.40
2023-01-20T23:43:43.151Z,72.80
2023-01-20T23:46:10.937Z,72.80
2023-01-20T23:48:39.180Z,72.80
2023-01-20T23:51:06.860Z,72.90
2023-01-20T23:53:40.349Z,72.90
2023-01-20T23:56:15.847Z,73.30
2023-01-20T23:58:42.859Z,73.40
